Time;durP1;ratioP1;P1;durP2;ratioP2;P2;SDS_P1;SDS_P2;PMS_P1;PMS_P2;Temp;Humidity;BMP_temperature;BMP_pressure;BME280_temperature;BME280_humidity;BME280_pressure;Samples;Min_cycle;Max_cycle;Signal;HPM_P1;HPM_P2
2021/09/28 00:04:14;;;;;;;1.70;1.60;;;19.00;99.90;;;;;;10400177;28;20313;-83
2021/09/28 00:09:18;;;;;;;1.60;1.60;;;18.90;99.90;;;;;;10419036;28;20550;-82
2021/09/28 00:14:21;;;;;;;1.43;1.43;;;18.90;99.90;;;;;;10401918;28;20226;-83
2021/09/28 00:19:23;;;;;;;1.90;1.50;;;18.80;99.90;;;;;;10403133;28;20377;-83
2021/09/28 00:24:26;;;;;;;1.53;1.53;;;18.70;99.90;;;;;;10419290;28;20581;-83
2021/09/28 00:29:28;;;;;;;1.50;1.40;;;18.60;99.90;;;;;;10391205;28;20238;-82
2021/09/28 00:34:30;;;;;;;1.73;1.67;;;18.50;99.90;;;;;;10372090;28;20210;-82
2021/09/28 00:39:34;;;;;;;1.67;1.57;;;18.40;99.90;;;;;;10371782;28;20218;-83
2021/09/28 00:44:38;;;;;;;1.70;1.60;;;18.30;99.90;;;;;;10355463;28;20788;-83
2021/09/28 00:49:41;;;;;;;1.77;1.67;;;18.10;99.90;;;;;;10371881;28;20226;-83
2021/09/28 00:54:45;;;;;;;2.60;2.07;;;18.00;99.90;;;;;;10354974;28;20269;-83
2021/09/28 00:59:48;;;;;;;2.40;1.80;;;17.80;99.90;;;;;;10368677;28;20223;-82
2021/09/28 01:04:50;;;;;;;3.30;2.00;;;17.70;99.90;;;;;;10367475;28;20225;-83
2021/09/28 01:09:53;;;;;;;2.60;1.93;;;17.60;99.90;;;;;;10355488;28;20231;-83
2021/09/28 01:14:56;;;;;;;1.93;1.80;;;17.50;99.90;;;;;;10371145;28;20566;-83
2021/09/28 01:19:58;;;;;;;1.90;1.80;;;17.40;99.90;;;;;;10371009;28;20225;-82
2021/09/28 01:25:01;;;;;;;1.97;1.80;;;17.40;99.90;;;;;;10354965;28;20199;-83
2021/09/28 01:30:04;;;;;;;3.53;2.00;;;17.40;99.90;;;;;;10410791;28;20702;-82
2021/09/28 01:35:07;;;;;;;2.00;1.80;;;17.40;99.90;;;;;;10404024;28;20198;-82
2021/09/28 01:40:12;;;;;;;2.00;1.80;;;17.30;99.90;;;;;;10422615;28;20229;-82
2021/09/28 01:45:15;;;;;;;2.20;1.77;;;17.30;99.90;;;;;;10420838;28;20297;-82
2021/09/28 01:50:18;;;;;;;2.80;2.00;;;17.30;99.90;;;;;;10403874;28;20275;-82
2021/09/28 01:55:21;;;;;;;1.70;1.60;;;17.30;99.90;;;;;;10421050;28;20201;-82
2021/09/28 02:00:23;;;;;;;2.37;2.17;;;17.20;99.90;;;;;;10364225;28;20317;-82
2021/09/28 02:05:26;;;;;;;3.97;1.83;;;17.30;99.90;;;;;;10378816;28;20209;-82
2021/09/28 02:10:30;;;;;;;1.77;1.67;;;17.20;99.90;;;;;;10380199;28;20651;-82
2021/09/28 02:15:32;;;;;;;1.83;1.47;;;17.20;99.90;;;;;;10380034;28;20598;-82
2021/09/28 02:20:34;;;;;;;2.80;1.90;;;17.20;99.90;;;;;;10362815;28;20230;-82
2021/09/28 02:25:38;;;;;;;3.13;1.80;;;17.20;99.90;;;;;;10379612;28;20198;-82
2021/09/28 02:30:40;;;;;;;2.03;1.80;;;17.10;99.90;;;;;;10418438;28;20264;-82
2021/09/28 02:35:43;;;;;;;4.30;2.23;;;17.20;99.90;;;;;;10402150;28;20485;-82
2021/09/28 02:40:47;;;;;;;2.53;1.90;;;17.20;99.90;;;;;;10416533;28;20232;-82
2021/09/28 02:45:50;;;;;;;2.20;1.83;;;17.10;99.90;;;;;;10401190;28;20336;-82
2021/09/28 02:50:52;;;;;;;2.03;1.93;;;17.20;99.90;;;;;;10417786;28;20229;-82
2021/09/28 02:55:56;;;;;;;2.37;1.97;;;17.20;99.90;;;;;;10397668;28;20202;-82
2021/09/28 03:00:58;;;;;;;2.90;1.87;;;17.20;99.90;;;;;;10376029;28;20700;-82
2021/09/28 03:06:00;;;;;;;2.40;2.17;;;17.20;99.90;;;;;;10376745;28;20201;-82
2021/09/28 03:11:04;;;;;;;3.50;1.60;;;17.10;99.90;;;;;;10361131;28;20257;-82
2021/09/28 03:16:06;;;;;;;3.97;2.10;;;17.20;99.90;;;;;;10379704;28;20719;-82
2021/09/28 03:21:08;;;;;;;3.13;2.33;;;17.10;99.90;;;;;;10362825;28;20309;-82
2021/09/28 03:26:12;;;;;;;2.50;2.13;;;17.00;99.90;;;;;;10363078;28;20226;-82
2021/09/28 03:31:14;;;;;;;2.37;2.17;;;17.00;99.90;;;;;;10361188;28;20243;-82
2021/09/28 03:36:16;;;;;;;3.17;2.60;;;16.90;99.90;;;;;;10377579;28;20735;-82
2021/09/28 03:41:20;;;;;;;2.60;2.40;;;16.90;99.90;;;;;;10360951;28;20230;-82
2021/09/28 03:46:22;;;;;;;1.90;1.80;;;16.90;99.90;;;;;;10377700;28;20218;-82
2021/09/28 03:51:24;;;;;;;3.47;2.37;;;16.80;99.90;;;;;;10361126;28;20821;-82
2021/09/28 03:56:28;;;;;;;2.57;2.30;;;16.80;99.90;;;;;;10386696;28;20285;-82
2021/09/28 04:01:30;;;;;;;4.07;2.73;;;16.80;99.90;;;;;;10401908;28;20214;-82
2021/09/28 04:06:32;;;;;;;3.57;2.07;;;16.80;99.90;;;;;;10402952;28;20300;-82
2021/09/28 04:11:36;;;;;;;4.73;2.80;;;16.80;99.90;;;;;;10418843;28;20233;-82
2021/09/28 04:16:38;;;;;;;2.93;2.30;;;16.80;99.90;;;;;;10417162;28;20194;-82
2021/09/28 04:21:40;;;;;;;2.30;2.10;;;16.70;99.90;;;;;;10418843;28;20692;-82
2021/09/28 04:26:44;;;;;;;2.17;1.97;;;16.60;99.90;;;;;;10390524;28;20206;-82
2021/09/28 04:31:46;;;;;;;2.40;2.30;;;16.50;99.90;;;;;;10393015;28;20301;-82
2021/09/28 04:36:48;;;;;;;4.47;2.97;;;16.30;99.90;;;;;;10361845;28;20207;-82
2021/09/28 04:41:51;;;;;;;2.47;2.23;;;16.20;99.90;;;;;;10361524;28;20449;-82
2021/09/28 04:46:53;;;;;;;2.90;2.70;;;16.10;99.90;;;;;;10361964;28;20249;-82
2021/09/28 04:51:55;;;;;;;4.13;3.33;;;16.00;99.90;;;;;;10361314;28;20704;-82
2021/09/28 04:56:59;;;;;;;6.10;3.40;;;15.90;99.90;;;;;;10373991;28;20223;-82
2021/09/28 05:02:01;;;;;;;3.30;3.10;;;15.90;99.90;;;;;;10419230;28;20596;-82
2021/09/28 05:07:04;;;;;;;3.73;3.20;;;15.80;99.90;;;;;;10418864;28;20206;-82
2021/09/28 05:12:08;;;;;;;4.23;3.27;;;15.80;99.90;;;;;;10421745;28;20255;-82
2021/09/28 05:17:10;;;;;;;3.17;2.87;;;15.70;99.90;;;;;;10401899;28;20229;-82
2021/09/28 05:22:12;;;;;;;3.53;2.80;;;15.70;99.90;;;;;;10422557;28;20213;-82
2021/09/28 05:27:16;;;;;;;3.00;2.80;;;15.60;99.90;;;;;;10388455;28;20207;-82
2021/09/28 05:32:18;;;;;;;4.97;3.17;;;15.60;99.90;;;;;;10395734;28;20254;-82
2021/09/28 05:37:20;;;;;;;5.57;3.27;;;15.60;99.90;;;;;;10380040;28;20213;-82
2021/09/28 05:42:24;;;;;;;4.27;3.87;;;15.50;99.90;;;;;;10380629;28;20310;-82
2021/09/28 05:47:26;;;;;;;4.60;3.50;;;15.50;99.90;;;;;;10372578;28;20561;-82
2021/09/28 05:52:29;;;;;;;3.70;3.37;;;15.50;99.90;;;;;;10372664;28;20478;-82
2021/09/28 05:57:32;;;;;;;5.30;4.20;;;15.40;99.90;;;;;;10387868;28;20214;-82
2021/09/28 06:02:34;;;;;;;3.60;3.20;;;15.40;99.90;;;;;;10411468;28;20249;-82
2021/09/28 06:07:37;;;;;;;2.80;2.27;;;15.30;99.90;;;;;;10411610;28;20229;-82
2021/09/28 06:12:41;;;;;;;4.03;3.63;;;15.30;99.90;;;;;;10395338;28;20234;-82
2021/09/28 06:17:43;;;;;;;4.90;3.30;;;15.30;99.90;;;;;;10401436;28;20639;-82
2021/09/28 06:22:45;;;;;;;8.00;4.20;;;15.30;99.90;;;;;;10419604;28;20244;-82
2021/09/28 06:27:49;;;;;;;5.83;3.40;;;15.30;99.90;;;;;;10400392;28;20212;-82
2021/09/28 06:32:51;;;;;;;3.53;3.23;;;15.30;99.90;;;;;;10394823;28;20284;-82
2021/09/28 06:37:54;;;;;;;5.53;4.07;;;15.40;99.90;;;;;;10377750;28;20191;-82
2021/09/28 06:42:57;;;;;;;3.57;3.27;;;15.50;99.90;;;;;;10378312;28;20640;-82
2021/09/28 06:47:59;;;;;;;5.07;3.70;;;15.70;99.90;;;;;;10377932;28;20198;-82
2021/09/28 06:53:02;;;;;;;8.47;4.20;;;15.80;99.90;;;;;;10377149;28;20262;-82
2021/09/28 06:58:05;;;;;;;6.40;5.30;;;15.80;99.90;;;;;;10399340;28;20236;-82
2021/09/28 07:03:08;;;;;;;4.30;3.90;;;15.90;99.90;;;;;;10417867;28;20216;-82
2021/09/28 07:08:10;;;;;;;7.00;4.23;;;16.10;99.90;;;;;;10418284;28;20589;-82
2021/09/28 07:13:13;;;;;;;6.00;5.40;;;16.20;99.90;;;;;;10418178;28;20601;-82
2021/09/28 07:18:16;;;;;;;4.97;4.50;;;16.40;99.90;;;;;;10401541;28;20205;-82
2021/09/28 07:23:19;;;;;;;7.27;5.63;;;16.60;99.90;;;;;;10401479;28;20236;-82
2021/09/28 07:28:22;;;;;;;6.60;5.70;;;16.70;99.90;;;;;;10376908;28;20214;-82
2021/09/28 07:33:24;;;;;;;5.70;5.20;;;16.70;99.90;;;;;;10376138;28;20710;-82
2021/09/28 07:38:27;;;;;;;8.60;6.10;;;16.80;99.90;;;;;;10377043;28;20197;-82
2021/09/28 07:43:31;;;;;;;6.30;5.50;;;16.90;99.90;;;;;;10393172;28;20233;-83
2021/09/28 07:48:33;;;;;;;8.53;5.43;;;17.00;99.90;;;;;;10377443;28;20571;-83
2021/09/28 07:53:35;;;;;;;6.57;5.87;;;17.10;99.90;;;;;;10375756;28;20258;-82
2021/09/28 07:58:38;;;;;;;6.67;5.93;;;17.20;99.90;;;;;;10375620;28;20229;-82
2021/09/28 08:03:43;;;;;;;7.27;6.07;;;17.30;99.90;;;;;;10374935;28;20221;-82
2021/09/28 08:08:45;;;;;;;6.57;6.07;;;17.40;99.90;;;;;;10376044;28;20256;-82
2021/09/28 08:13:48;;;;;;;7.23;6.53;;;17.40;99.90;;;;;;10358113;28;20215;-82
2021/09/28 08:18:50;;;;;;;7.03;6.27;;;17.30;99.90;;;;;;10375314;28;20667;-82
2021/09/28 08:23:52;;;;;;;6.63;6.03;;;17.30;99.90;;;;;;10375723;28;20216;-82
2021/09/28 08:29:09;;;;;;;10.00;6.30;;;17.40;99.90;;;;;;10386334;28;20300;-82
2021/09/28 08:34:13;;;;;;;5.23;3.93;;;17.40;99.90;;;;;;10417162;28;20585;-82
2021/09/28 08:39:17;;;;;;;4.67;4.17;;;17.30;99.90;;;;;;10416451;28;20198;-82
2021/09/28 08:44:20;;;;;;;7.03;5.20;;;17.30;99.90;;;;;;10399548;28;20230;-82
2021/09/28 08:49:23;;;;;;;6.47;5.87;;;17.50;99.90;;;;;;10416025;28;20724;-82
2021/09/28 08:54:25;;;;;;;6.67;5.97;;;17.70;99.90;;;;;;10414983;28;20222;-82
2021/09/28 08:59:48;;;;;;;8.53;6.10;;;17.80;99.90;;;;;;10368182;28;20663;-82
2021/09/28 09:05:04;;;;;;;7.93;6.43;;;17.90;99.90;;;;;;10359450;28;20275;-82
2021/09/28 09:10:08;;;;;;;5.73;5.23;;;18.00;99.90;;;;;;10375150;28;20225;-82
2021/09/28 09:15:22;;;;;;;6.13;5.53;;;18.10;99.90;;;;;;10358945;28;20206;-82
2021/09/28 09:20:33;;;;;;;7.27;5.20;;;18.20;99.90;;;;;;10376047;28;20310;-82
2021/09/28 09:25:35;;;;;;;6.73;5.23;;;18.20;99.90;;;;;;10358547;28;20241;-82
2021/09/28 09:30:39;;;;;;;6.40;5.50;;;18.20;99.90;;;;;;10376674;28;20210;-82
2021/09/28 09:35:42;;;;;;;5.70;5.23;;;18.10;99.90;;;;;;10375978;28;20549;-82
2021/09/28 09:40:46;;;;;;;4.63;4.20;;;18.10;99.90;;;;;;10377026;28;20214;-82
2021/09/28 09:45:50;;;;;;;5.37;4.07;;;18.20;99.90;;;;;;10355224;28;20285;-82
2021/09/28 09:50:56;;;;;;;6.97;4.13;;;18.30;99.90;;;;;;10359444;28;20250;-82
2021/09/28 09:55:59;;;;;;;6.07;4.87;;;18.40;99.90;;;;;;10371316;28;20292;-82
2021/09/28 10:01:02;;;;;;;7.17;4.87;;;18.50;99.90;;;;;;10397185;28;20596;-82
2021/09/28 10:06:05;;;;;;;5.00;4.60;;;18.40;99.90;;;;;;10426310;28;20281;-82
2021/09/28 10:11:08;;;;;;;4.50;4.10;;;18.20;99.90;;;;;;10391145;28;20283;-82
2021/09/28 10:16:31;;;;;;;5.73;4.33;;;18.10;99.90;;;;;;10390918;28;20246;-82
2021/09/28 10:21:43;;;;;;;4.77;4.40;;;17.90;99.90;;;;;;10390388;28;20628;-82
2021/09/28 10:26:45;;;;;;;6.63;4.63;;;17.90;99.90;;;;;;10423795;28;20678;-82
2021/09/28 10:31:49;;;;;;;6.63;4.47;;;17.80;99.90;;;;;;10362077;28;20235;-82
2021/09/28 10:36:53;;;;;;;6.13;4.13;;;17.90;99.90;;;;;;10360597;28;20333;-82
2021/09/28 10:42:00;;;;;;;4.07;3.60;;;17.90;99.90;;;;;;10364042;28;20234;-82
2021/09/28 10:47:04;;;;;;;6.03;3.27;;;17.90;99.90;;;;;;10377026;28;20199;-82
2021/09/28 10:52:43;;;;;;;4.13;3.70;;;17.90;99.90;;;;;;10376510;28;20234;-83
2021/09/28 10:58:11;;;;;;;6.20;3.50;;;18.00;99.90;;;;;;10390623;28;20265;-83
2021/09/28 11:03:16;;;;;;;4.00;3.70;;;18.10;99.90;;;;;;10415462;28;20236;-82
2021/09/28 11:08:22;;;;;;;5.97;3.93;;;18.30;99.90;;;;;;10417267;28;20317;-82
2021/09/28 11:13:29;;;;;;;4.53;3.60;;;18.30;99.90;;;;;;10399861;28;20280;-82
2021/09/28 11:18:33;;;;;;;5.40;3.77;;;18.30;99.90;;;;;;10416958;28;20667;-82
2021/09/28 11:23:36;;;;;;;4.03;3.57;;;18.20;99.90;;;;;;10417493;28;20296;-82
2021/09/28 11:28:47;;;;;;;4.90;3.97;;;18.10;99.90;;;;;;10399881;28;20289;-82
2021/09/28 11:33:51;;;;;;;3.87;3.57;;;18.10;99.90;;;;;;10378758;28;20297;-82
2021/09/28 11:38:53;;;;;;;3.60;3.30;;;18.10;99.90;;;;;;10366541;28;20230;-82
2021/09/28 11:43:57;;;;;;;5.57;5.07;;;18.10;99.90;;;;;;10382640;28;20222;-82
2021/09/28 11:49:05;;;;;;;5.37;4.13;;;18.10;99.90;;;;;;10367555;28;20237;-82
2021/09/28 11:54:15;;;;;;;5.87;4.80;;;18.20;99.90;;;;;;10368497;28;20230;-82
2021/09/28 11:59:18;;;;;;;5.10;4.70;;;18.30;99.90;;;;;;10383928;28;20225;-82
2021/09/28 12:04:33;;;;;;;4.90;4.60;;;18.30;99.90;;;;;;10399667;28;20305;-82
2021/09/28 12:09:54;;;;;;;5.33;4.83;;;18.40;99.90;;;;;;10414662;28;20228;-82
2021/09/28 12:15:11;;;;;;;5.87;5.27;;;18.50;99.90;;;;;;10414184;28;20206;-82
2021/09/28 12:20:16;;;;;;;5.60;5.10;;;18.60;99.90;;;;;;10397772;28;20213;-82
2021/09/28 12:25:22;;;;;;;7.03;6.17;;;18.60;99.90;;;;;;10413812;28;20273;-82
2021/09/28 12:30:27;;;;;;;7.43;6.60;;;18.60;99.90;;;;;;10382681;28;20226;-82
2021/09/28 12:35:32;;;;;;;6.20;5.70;;;18.50;99.90;;;;;;10373826;28;20206;-82
2021/09/28 12:40:38;;;;;;;9.70;6.10;;;18.60;99.90;;;;;;10374082;28;20616;-82
2021/09/28 12:45:46;;;;;;;6.13;5.63;;;18.70;99.90;;;;;;10355248;28;20280;-82
2021/09/28 12:51:00;;;;;;;6.50;5.87;;;18.80;99.90;;;;;;10371466;28;20591;-82
2021/09/28 13:01:28;;;;;;;6.17;5.67;;;18.80;99.90;;;;;;10412019;28;20221;-82
2021/09/28 13:06:32;;;;;;;6.00;5.47;;;18.90;99.90;;;;;;10396524;28;20297;-82
2021/09/28 13:11:35;;;;;;;7.80;6.20;;;18.90;99.90;;;;;;10411688;28;20271;-82
2021/09/28 13:16:38;;;;;;;6.33;5.83;;;18.90;99.90;;;;;;10395641;28;20216;-82
2021/09/28 13:21:42;;;;;;;5.13;4.70;;;19.00;99.30;;;;;;10395590;28;20308;-82
2021/09/28 13:26:55;;;;;;;5.80;5.20;;;19.00;99.90;;;;;;10408860;28;20662;-82
2021/09/28 13:32:00;;;;;;;5.33;4.90;;;19.00;99.50;;;;;;10371765;28;20309;-82
2021/09/28 13:37:03;;;;;;;6.47;5.97;;;19.00;99.90;;;;;;10354123;28;20738;-82
2021/09/28 13:42:21;;;;;;;6.73;5.80;;;19.00;99.90;;;;;;10417695;23;20320;-84
2021/09/28 13:47:24;;;;;;;5.67;5.17;;;19.10;99.90;;;;;;10428645;28;20209;-83
2021/09/28 13:52:27;;;;;;;5.23;4.83;;;19.10;99.90;;;;;;10441245;28;20229;-84
2021/09/28 13:57:29;;;;;;;6.77;5.00;;;19.10;99.90;;;;;;10456188;28;20228;-83
2021/09/28 14:02:32;;;;;;;5.33;4.83;;;19.10;99.90;;;;;;10441256;28;20291;-83
2021/09/28 14:07:35;;;;;;;4.50;4.10;;;19.10;99.90;;;;;;10425668;28;20208;-83
2021/09/28 14:12:40;;;;;;;4.73;4.33;;;19.20;99.90;;;;;;10425599;28;20246;-84
2021/09/28 14:17:42;;;;;;;4.90;4.60;;;19.20;99.20;;;;;;10426277;28;20205;-84
2021/09/28 14:22:46;;;;;;;5.17;4.73;;;19.20;99.90;;;;;;10458563;28;20279;-84
2021/09/28 14:27:48;;;;;;;5.40;5.00;;;19.20;99.90;;;;;;10442219;28;20450;-83
2021/09/28 14:32:50;;;;;;;5.10;4.73;;;19.20;99.90;;;;;;10442481;28;20276;-83
2021/09/28 14:37:53;;;;;;;5.60;4.70;;;19.20;99.90;;;;;;10440788;28;20204;-84
2021/09/28 14:42:56;;;;;;;4.93;4.50;;;19.30;99.20;;;;;;10442109;28;20225;-84
2021/09/28 14:47:58;;;;;;;5.03;4.07;;;19.30;99.90;;;;;;10442309;28;20687;-83
2021/09/28 14:53:01;;;;;;;5.60;4.90;;;19.30;99.90;;;;;;10443022;28;20221;-83
2021/09/28 14:58:04;;;;;;;5.20;4.70;;;19.30;99.90;;;;;;10442700;28;20203;-84
2021/09/28 15:03:06;;;;;;;4.47;4.07;;;19.30;99.90;;;;;;10461227;28;20278;-84
2021/09/28 15:08:10;;;;;;;4.00;3.70;;;19.30;99.90;;;;;;10462418;28;20300;-84
2021/09/28 15:13:12;;;;;;;8.40;4.63;;;19.30;99.90;;;;;;10444724;28;20239;-83
2021/09/28 15:18:14;;;;;;;4.97;4.20;;;19.30;99.90;;;;;;10428539;28;20235;-84
2021/09/28 15:23:18;;;;;;;4.73;4.43;;;19.30;99.90;;;;;;10443578;28;20271;-83
2021/09/28 15:28:20;;;;;;;3.83;3.50;;;19.20;99.90;;;;;;10428149;28;20209;-84
2021/09/28 15:33:22;;;;;;;3.60;3.40;;;19.20;99.90;;;;;;10444556;28;20324;-83
2021/09/28 15:38:45;;;;;;;4.23;3.83;;;19.10;99.90;;;;;;10430271;28;20312;-84
2021/09/28 15:43:48;;;;;;;4.07;3.77;;;19.10;99.90;;;;;;10429833;28;20315;-84
2021/09/28 15:48:52;;;;;;;5.13;4.13;;;19.10;99.90;;;;;;10431694;28;20198;-84
2021/09/28 15:53:57;;;;;;;4.47;4.07;;;19.10;99.90;;;;;;10433128;28;20320;-84
2021/09/28 15:58:59;;;;;;;4.00;3.70;;;19.10;99.90;;;;;;10425583;28;20204;-84
2021/09/28 16:04:01;;;;;;;3.80;3.50;;;19.00;99.90;;;;;;10435698;28;20293;-84
2021/09/28 16:09:05;;;;;;;4.60;4.20;;;19.00;99.90;;;;;;10428973;28;20197;-83
2021/09/28 16:14:08;;;;;;;3.73;3.43;;;18.90;99.90;;;;;;10446820;28;20613;-84
2021/09/28 16:19:25;;;;;;;6.20;5.70;;;18.90;99.90;;;;;;10415993;28;20258;-84
2021/09/28 16:24:29;;;;;;;4.40;4.00;;;18.80;99.90;;;;;;10439382;28;20220;-84
2021/09/28 16:56:24;;;;;;;4.60;4.20;;;18.20;99.90;;;;;;10197943;28;20209;-84
2021/09/28 17:01:27;;;;;;;4.93;4.57;;;18.10;99.90;;;;;;10251629;28;20678;-84
2021/09/28 17:06:39;;;;;;;3.73;3.43;;;18.00;99.90;;;;;;10256806;28;20294;-84
2021/09/28 17:37:51;;;;;;;4.70;4.30;;;17.40;99.90;;;;;;10174648;29;20209;-84
2021/09/28 17:49:56;;;;;;;5.23;4.93;;;17.10;99.90;;;;;;10210124;28;20224;-84
2021/09/28 18:09:28;;;;;;;11.03;10.13;;;16.90;99.90;;;;;;10329008;28;20266;-84
2021/09/28 18:14:30;;;;;;;5.83;5.43;;;16.70;99.90;;;;;;10314016;28;20236;-84
2021/09/28 18:19:34;;;;;;;4.27;3.87;;;16.80;99.90;;;;;;10426968;28;20648;-84
2021/09/28 18:24:38;;;;;;;5.43;5.03;;;16.70;99.90;;;;;;10429606;28;20271;-84
2021/09/28 18:29:40;;;;;;;5.50;5.10;;;16.70;99.90;;;;;;10444751;28;20238;-83
2021/09/28 18:34:46;;;;;;;5.33;4.53;;;16.60;99.90;;;;;;10471208;28;20326;-83
2021/09/28 18:39:57;;;;;;;4.77;4.33;;;16.60;99.90;;;;;;10505762;28;20561;-83
2021/09/28 18:44:59;;;;;;;5.43;4.90;;;16.60;99.90;;;;;;10487298;28;20196;-84
2021/09/28 18:50:01;;;;;;;5.80;5.30;;;16.60;99.90;;;;;;10470772;28;20211;-84
2021/09/28 18:55:06;;;;;;;9.63;8.70;;;16.60;99.90;;;;;;10507241;28;20598;-84
2021/09/28 19:00:09;;;;;;;6.87;6.27;;;16.60;99.90;;;;;;10486390;28;20279;-84
2021/09/28 19:05:17;;;;;;;5.40;5.00;;;16.60;99.90;;;;;;10428568;28;20239;-84
2021/09/28 19:10:24;;;;;;;5.53;5.23;;;16.60;99.90;;;;;;10447936;28;20697;-84
2021/09/28 19:15:27;;;;;;;6.77;6.20;;;16.60;99.90;;;;;;10446170;28;20221;-84
2021/09/28 19:20:34;;;;;;;5.30;4.90;;;16.50;99.90;;;;;;10448708;28;20675;-84
2021/09/28 19:25:37;;;;;;;5.60;5.20;;;16.50;99.90;;;;;;10448510;28;20202;-84
2021/09/28 19:30:40;;;;;;;8.50;5.30;;;16.50;99.90;;;;;;10456259;28;20232;-84
2021/09/28 19:35:42;;;;;;;5.87;5.37;;;16.40;99.90;;;;;;10492986;28;20227;-84
2021/09/28 19:40:49;;;;;;;6.50;5.87;;;16.40;99.90;;;;;;10498356;28;20208;-85
2021/09/28 19:45:54;;;;;;;6.10;5.50;;;16.40;99.90;;;;;;10469714;28;20222;-84
2021/09/28 19:50:58;;;;;;;6.40;5.90;;;16.30;99.90;;;;;;10472824;28;20220;-84
2021/09/28 19:56:16;;;;;;;6.60;5.93;;;16.30;99.90;;;;;;10474787;28;20209;-83
2021/09/28 20:01:24;;;;;;;6.13;5.60;;;16.40;99.90;;;;;;10486446;28;20212;-85
2021/09/28 20:38:30;;;;;;;6.63;5.90;;;16.20;99.90;;;;;;10482147;28;20241;-85
2021/09/28 20:43:33;;;;;;;6.30;5.70;;;16.30;99.90;;;;;;10465998;28;20712;-84
2021/09/28 20:48:36;;;;;;;6.43;5.83;;;16.30;99.90;;;;;;10465179;28;20197;-84
2021/09/28 20:53:39;;;;;;;7.27;6.70;;;16.20;99.90;;;;;;10483014;28;20224;-84
2021/09/28 20:58:42;;;;;;;6.23;5.77;;;16.20;99.90;;;;;;10465909;28;20212;-85
2021/09/28 21:03:47;;;;;;;6.00;5.50;;;16.20;99.90;;;;;;10481764;28;20232;-84
2021/09/28 21:08:49;;;;;;;6.20;5.80;;;16.20;99.90;;;;;;10467191;28;20205;-85
2021/09/28 21:14:07;;;;;;;5.63;5.23;;;16.20;99.90;;;;;;10475251;23;20264;-84
2021/09/28 21:19:09;;;;;;;5.53;5.10;;;16.20;99.90;;;;;;10445205;28;20197;-84
2021/09/28 21:24:12;;;;;;;5.70;5.30;;;16.10;99.90;;;;;;10480256;28;20591;-84
2021/09/28 21:29:38;;;;;;;6.40;5.90;;;16.10;99.90;;;;;;10465445;28;20365;-84
2021/09/28 21:34:45;;;;;;;6.90;6.20;;;16.10;99.90;;;;;;10462678;28;20307;-83
2021/09/28 21:39:58;;;;;;;5.77;5.20;;;16.20;99.90;;;;;;10480531;28;20211;-83
2021/09/28 21:58:14;;;;;;;5.10;4.80;;;16.20;99.90;;;;;;10378090;28;20233;-84
2021/09/28 22:08:34;;;;;;;5.80;5.40;;;16.20;99.90;;;;;;2941521;26;20223;-84
2021/09/28 22:13:37;;;;;;;5.43;5.03;;;16.30;99.90;;;;;;10459832;28;20874;-83
2021/09/28 22:18:39;;;;;;;5.60;5.13;;;16.30;99.90;;;;;;10428760;28;20645;-84
2021/09/28 22:23:43;;;;;;;7.53;5.67;;;16.40;99.90;;;;;;10462266;28;20276;-84
2021/09/28 22:28:45;;;;;;;5.50;5.20;;;16.40;99.90;;;;;;10461092;28;20209;-84
2021/09/28 22:33:48;;;;;;;5.70;5.20;;;16.50;99.90;;;;;;10446292;28;20581;-84
2021/09/28 22:38:52;;;;;;;6.13;5.33;;;16.50;99.90;;;;;;10464240;28;20213;-84
2021/09/28 22:43:54;;;;;;;6.10;5.70;;;16.50;99.90;;;;;;10464414;28;20209;-85
2021/09/28 22:48:56;;;;;;;6.23;5.73;;;16.60;99.90;;;;;;10465439;28;20203;-85
2021/09/28 22:54:00;;;;;;;5.67;5.17;;;16.60;99.90;;;;;;10444816;28;20320;-84
2021/09/28 22:59:02;;;;;;;5.43;5.03;;;16.60;99.90;;;;;;10463216;28;20684;-84
2021/09/28 23:04:05;;;;;;;5.57;5.17;;;16.70;99.90;;;;;;10452658;28;20239;-85
2021/09/28 23:09:08;;;;;;;8.13;6.57;;;16.70;99.90;;;;;;10450006;28;20240;-84
2021/09/28 23:14:10;;;;;;;7.20;5.80;;;16.70;99.90;;;;;;10455239;28;20237;-84
2021/09/28 23:19:13;;;;;;;7.23;6.10;;;16.70;99.90;;;;;;10460667;28;20205;-84
2021/09/28 23:24:16;;;;;;;6.57;5.97;;;16.70;99.90;;;;;;10441149;28;20221;-84
2021/09/28 23:29:18;;;;;;;8.00;7.40;;;16.70;99.90;;;;;;10456436;28;20241;-84
2021/09/28 23:34:20;;;;;;;7.07;6.53;;;16.60;99.90;;;;;;10459664;28;20225;-84
2021/09/28 23:39:24;;;;;;;7.70;7.00;;;16.50;99.90;;;;;;10461582;28;20236;-84
2021/09/28 23:44:26;;;;;;;7.20;6.60;;;16.50;99.90;;;;;;10445995;28;20217;-84
2021/09/28 23:49:28;;;;;;;10.07;6.73;;;16.50;99.90;;;;;;10464142;28;20297;-85
2021/09/28 23:54:32;;;;;;;6.43;6.03;;;16.50;99.90;;;;;;10466867;28;20224;-84
2021/09/28 23:59:34;;;;;;;7.90;7.20;;;16.50;99.90;;;;;;10466841;28;20201;-84
